Time;durP1;ratioP1;P1;durP2;ratioP2;P2;SDS_P1;SDS_P2;PMS_P1;PMS_P2;Temp;Humidity;BMP_temperature;BMP_pressure;BME280_temperature;BME280_humidity;BME280_pressure;Samples;Min_cycle;Max_cycle;Signal;HPM_P1;HPM_P2
2023/03/31 00:01:09;;;;;;;6.33;2.40;;;;;;;;;;5011884;28;20220;-82
2023/03/31 00:04:13;;;;;;;5.87;2.43;;;;;;;;;;5023226;28;20527;-85
2023/03/31 00:07:20;;;;;;;4.83;2.43;;;;;;;;;;5023649;28;20657;-84
2023/03/31 00:10:24;;;;;;;3.93;2.40;;;;;;;;;;5022754;28;20220;-84
2023/03/31 00:13:30;;;;;;;8.13;2.70;;;;;;;;;;5011761;28;20188;-84
2023/03/31 00:16:35;;;;;;;5.23;2.90;;;;;;;;;;5011965;28;20193;-85
2023/03/31 00:19:40;;;;;;;8.03;2.70;;;;;;;;;;5019265;28;20232;-86
2023/03/31 00:22:47;;;;;;;9.20;2.93;;;;;;;;;;5026080;28;20188;-86
2023/03/31 00:25:51;;;;;;;5.27;2.50;;;;;;;;;;5014445;28;20181;-86
2023/03/31 00:28:56;;;;;;;6.03;2.70;;;;;;;;;;5025477;28;20177;-86
2023/03/31 00:32:00;;;;;;;5.67;2.77;;;;;;;;;;5014186;28;20506;-86
2023/03/31 00:35:05;;;;;;;8.50;2.90;;;;;;;;;;5025390;28;20181;-84
2023/03/31 00:38:12;;;;;;;3.77;2.20;;;;;;;;;;5013338;28;20209;-86
2023/03/31 00:41:16;;;;;;;5.77;2.30;;;;;;;;;;5012662;28;20700;-86
2023/03/31 00:44:23;;;;;;;5.30;2.80;;;;;;;;;;5035580;28;20181;-86
2023/03/31 00:47:28;;;;;;;7.17;3.03;;;;;;;;;;5001562;28;20185;-86
2023/03/31 00:50:54;;;;;;;7.73;2.57;;;;;;;;;;5024307;28;20216;-86
2023/03/31 00:54:03;;;;;;;5.43;2.47;;;;;;;;;;5012244;28;20193;-86
2023/03/31 00:57:09;;;;;;;4.77;2.57;;;;;;;;;;5001119;28;20193;-85
2023/03/31 01:00:14;;;;;;;6.33;2.47;;;;;;;;;;5001117;28;20213;-85
2023/03/31 01:03:21;;;;;;;5.93;2.90;;;;;;;;;;5011733;28;20204;-85
2023/03/31 01:06:29;;;;;;;6.70;2.57;;;;;;;;;;5034049;28;20189;-86
2023/03/31 01:09:34;;;;;;;6.07;2.80;;;;;;;;;;5011358;28;20221;-85
2023/03/31 01:12:46;;;;;;;4.43;2.73;;;;;;;;;;5011416;28;20185;-85
2023/03/31 01:15:50;;;;;;;7.43;2.87;;;;;;;;;;5011355;28;20184;-86
2023/03/31 01:18:56;;;;;;;7.63;3.37;;;;;;;;;;5022225;28;20212;-85
2023/03/31 01:22:09;;;;;;;5.73;3.17;;;;;;;;;;5022205;28;20189;-86
2023/03/31 01:25:32;;;;;;;8.57;3.33;;;;;;;;;;4999456;28;20201;-85
2023/03/31 01:28:45;;;;;;;8.53;3.30;;;;;;;;;;5011067;28;20523;-85
2023/03/31 01:32:08;;;;;;;12.10;3.37;;;;;;;;;;4999892;28;20180;-85
2023/03/31 01:35:19;;;;;;;9.37;3.27;;;;;;;;;;5000059;28;20543;-85
2023/03/31 01:38:56;;;;;;;8.67;3.07;;;;;;;;;;5010894;28;20213;-85
2023/03/31 01:42:19;;;;;;;9.10;3.23;;;;;;;;;;5010775;28;20204;-85
2023/03/31 01:45:32;;;;;;;7.40;3.20;;;;;;;;;;5011038;28;20515;-85
2023/03/31 01:48:56;;;;;;;5.27;2.80;;;;;;;;;;5010765;28;20193;-85
2023/03/31 01:52:11;;;;;;;6.50;3.90;;;;;;;;;;5010174;28;20185;-85
2023/03/31 01:55:25;;;;;;;10.97;3.70;;;;;;;;;;4999256;28;20185;-85
2023/03/31 01:58:39;;;;;;;6.17;2.93;;;;;;;;;;5009645;28;20224;-85
2023/03/31 02:01:51;;;;;;;9.87;3.23;;;;;;;;;;5010546;28;20180;-86
2023/03/31 02:05:00;;;;;;;5.63;3.37;;;;;;;;;;5010359;28;20177;-85
2023/03/31 02:08:10;;;;;;;5.40;3.47;;;;;;;;;;5021616;28;20181;-85
2023/03/31 02:11:15;;;;;;;5.00;3.10;;;;;;;;;;5016765;28;20221;-85
2023/03/31 02:14:23;;;;;;;6.63;3.50;;;;;;;;;;5013808;28;20219;-86
2023/03/31 02:17:31;;;;;;;5.93;3.40;;;;;;;;;;5004373;28;20189;-86
2023/03/31 02:20:41;;;;;;;7.80;3.47;;;;;;;;;;5015515;28;20217;-86
2023/03/31 02:23:48;;;;;;;6.87;3.60;;;;;;;;;;5027319;28;20185;-86
2023/03/31 02:27:13;;;;;;;6.67;3.40;;;;;;;;;;5015248;28;20181;-86
2023/03/31 02:30:17;;;;;;;9.87;4.33;;;;;;;;;;5027214;28;20216;-86
2023/03/31 02:33:21;;;;;;;5.40;3.30;;;;;;;;;;5015442;28;20649;-86
2023/03/31 02:36:25;;;;;;;6.83;3.33;;;;;;;;;;5003007;28;20189;-86
2023/03/31 02:39:35;;;;;;;7.17;3.80;;;;;;;;;;5051985;23;20236;-85
2023/03/31 02:42:40;;;;;;;6.17;3.60;;;;;;;;;;4997074;28;20217;-85
2023/03/31 02:45:48;;;;;;;7.23;3.70;;;;;;;;;;5009206;28;20182;-84
2023/03/31 02:48:55;;;;;;;8.23;3.93;;;;;;;;;;4998450;28;20174;-85
2023/03/31 02:52:14;;;;;;;4.47;3.17;;;;;;;;;;4978864;28;20190;-84
2023/03/31 02:55:18;;;;;;;7.57;4.23;;;;;;;;;;4967260;28;20547;-84
2023/03/31 02:58:54;;;;;;;8.17;4.30;;;;;;;;;;4966934;28;20233;-85
2023/03/31 03:02:43;;;;;;;7.73;3.90;;;;;;;;;;4978590;28;20194;-84
2023/03/31 03:06:08;;;;;;;7.50;4.23;;;;;;;;;;4923595;28;20210;-86
2023/03/31 03:09:30;;;;;;;10.90;3.83;;;;;;;;;;4977769;28;20631;-85
2023/03/31 03:12:46;;;;;;;7.57;4.20;;;;;;;;;;4967178;28;20183;-85
2023/03/31 03:16:08;;;;;;;12.17;3.77;;;;;;;;;;4963186;28;20183;-85
2023/03/31 03:19:19;;;;;;;10.90;3.90;;;;;;;;;;4985783;28;20206;-86
2023/03/31 03:22:23;;;;;;;8.93;3.93;;;;;;;;;;5010020;28;20194;-86
2023/03/31 03:25:29;;;;;;;7.70;4.40;;;;;;;;;;5007657;28;20182;-85
2023/03/31 03:28:33;;;;;;;9.17;3.80;;;;;;;;;;4968172;28;20202;-85
2023/03/31 03:31:38;;;;;;;6.37;4.10;;;;;;;;;;4976428;28;20218;-85
2023/03/31 03:34:42;;;;;;;6.40;3.87;;;;;;;;;;4984051;28;20202;-86
2023/03/31 03:37:45;;;;;;;8.77;4.33;;;;;;;;;;4989028;28;20182;-84
2023/03/31 03:40:52;;;;;;;8.73;4.20;;;;;;;;;;4985896;28;20221;-85
2023/03/31 03:43:57;;;;;;;7.50;4.20;;;;;;;;;;4962344;28;20528;-86
2023/03/31 03:47:01;;;;;;;7.60;4.17;;;;;;;;;;4998801;28;20186;-84
2023/03/31 03:50:06;;;;;;;7.63;3.90;;;;;;;;;;4987731;28;20214;-86
2023/03/31 03:53:10;;;;;;;8.07;4.27;;;;;;;;;;4995979;28;20190;-85
2023/03/31 03:56:14;;;;;;;9.30;4.10;;;;;;;;;;4984151;28;20194;-87
2023/03/31 03:59:18;;;;;;;6.60;3.93;;;;;;;;;;4963440;28;20214;-85
2023/03/31 04:02:22;;;;;;;9.40;4.17;;;;;;;;;;4986509;28;20198;-84
2023/03/31 04:05:26;;;;;;;10.43;3.77;;;;;;;;;;4964140;28;20190;-85
2023/03/31 04:08:31;;;;;;;8.20;4.07;;;;;;;;;;4984543;28;20182;-85
2023/03/31 04:11:35;;;;;;;12.70;3.93;;;;;;;;;;4995494;28;20225;-85
2023/03/31 04:14:39;;;;;;;8.90;4.07;;;;;;;;;;4995225;28;20202;-86
2023/03/31 04:17:49;;;;;;;12.33;4.10;;;;;;;;;;4961660;28;20178;-86
2023/03/31 04:21:03;;;;;;;5.80;3.63;;;;;;;;;;4994748;28;20544;-86
2023/03/31 04:24:07;;;;;;;6.63;3.57;;;;;;;;;;4963354;28;20194;-86
2023/03/31 04:27:12;;;;;;;7.87;3.73;;;;;;;;;;4963286;28;20190;-85
2023/03/31 04:30:21;;;;;;;11.20;4.00;;;;;;;;;;4987016;28;20218;-85
2023/03/31 04:33:26;;;;;;;8.97;4.53;;;;;;;;;;4998084;28;20186;-85
2023/03/31 04:36:30;;;;;;;6.97;3.83;;;;;;;;;;5006542;28;20523;-86
2023/03/31 04:39:35;;;;;;;6.87;4.10;;;;;;;;;;5006228;28;20210;-85
2023/03/31 04:42:39;;;;;;;9.40;4.10;;;;;;;;;;4983979;28;20194;-86
2023/03/31 04:45:43;;;;;;;8.53;4.03;;;;;;;;;;4983419;28;20186;-86
2023/03/31 04:48:47;;;;;;;5.93;3.60;;;;;;;;;;4995158;28;20186;-85
2023/03/31 04:51:52;;;;;;;10.37;4.20;;;;;;;;;;4983770;28;20186;-85
2023/03/31 04:54:56;;;;;;;8.90;4.10;;;;;;;;;;5006037;28;20194;-85
2023/03/31 04:58:00;;;;;;;8.33;4.10;;;;;;;;;;4961393;28;20206;-85
2023/03/31 05:01:07;;;;;;;9.53;4.07;;;;;;;;;;4983306;28;20226;-86
2023/03/31 05:04:11;;;;;;;7.23;3.90;;;;;;;;;;4994794;28;20190;-85
2023/03/31 05:07:19;;;;;;;10.13;4.37;;;;;;;;;;4983634;28;20202;-85
2023/03/31 05:10:23;;;;;;;9.47;3.97;;;;;;;;;;4983802;28;20217;-85
2023/03/31 05:13:27;;;;;;;8.03;3.60;;;;;;;;;;4983924;28;20186;-85
2023/03/31 05:16:31;;;;;;;8.27;4.10;;;;;;;;;;4983149;28;20206;-85
2023/03/31 05:19:36;;;;;;;10.50;4.40;;;;;;;;;;4960886;28;20559;-85
2023/03/31 05:22:40;;;;;;;9.40;4.30;;;;;;;;;;4983605;28;20189;-85
2023/03/31 05:25:44;;;;;;;8.20;3.80;;;;;;;;;;4983245;28;20190;-85
2023/03/31 05:28:48;;;;;;;6.63;4.33;;;;;;;;;;4961557;28;20182;-85
2023/03/31 05:31:52;;;;;;;11.40;4.30;;;;;;;;;;4972272;28;20191;-85
2023/03/31 05:34:56;;;;;;;8.53;4.20;;;;;;;;;;4961347;28;20186;-85
2023/03/31 05:38:00;;;;;;;8.53;4.83;;;;;;;;;;4961144;28;20206;-85
2023/03/31 05:41:05;;;;;;;11.40;4.60;;;;;;;;;;4972995;28;20242;-85
2023/03/31 05:44:10;;;;;;;8.20;4.87;;;;;;;;;;4983395;28;20198;-85
2023/03/31 05:47:14;;;;;;;8.70;4.87;;;;;;;;;;4960768;28;20516;-86
2023/03/31 05:50:19;;;;;;;12.03;4.63;;;;;;;;;;4982052;28;20218;-86
2023/03/31 05:53:24;;;;;;;16.17;5.17;;;;;;;;;;4985786;28;20190;-86
2023/03/31 05:56:28;;;;;;;9.50;4.87;;;;;;;;;;4996936;28;20202;-86
2023/03/31 05:59:34;;;;;;;10.27;5.13;;;;;;;;;;4963847;28;20217;-86
2023/03/31 06:02:39;;;;;;;9.20;5.60;;;;;;;;;;4964121;28;20202;-86
2023/03/31 06:05:48;;;;;;;10.03;5.17;;;;;;;;;;5008612;28;20186;-86
2023/03/31 06:08:51;;;;;;;10.40;5.37;;;;;;;;;;4985891;28;20182;-86
2023/03/31 06:11:55;;;;;;;11.47;5.10;;;;;;;;;;4985571;28;20182;-86
2023/03/31 06:14:59;;;;;;;12.00;5.30;;;;;;;;;;4996692;28;20182;-86
2023/03/31 06:18:06;;;;;;;14.70;5.33;;;;;;;;;;4996894;28;20182;-86
2023/03/31 06:21:15;;;;;;;9.37;5.30;;;;;;;;;;4973928;28;20233;-86
2023/03/31 06:24:19;;;;;;;9.37;5.27;;;;;;;;;;4975485;28;20646;-86
2023/03/31 06:27:23;;;;;;;12.97;4.80;;;;;;;;;;4970117;28;20198;-86
2023/03/31 06:30:27;;;;;;;12.30;4.90;;;;;;;;;;4996685;28;20690;-86
2023/03/31 06:33:31;;;;;;;9.97;4.93;;;;;;;;;;4963289;28;20635;-86
2023/03/31 06:36:36;;;;;;;13.20;6.00;;;;;;;;;;4963675;28;20531;-86
2023/03/31 06:39:40;;;;;;;10.03;4.83;;;;;;;;;;5007345;28;20226;-86
2023/03/31 06:42:44;;;;;;;9.20;4.53;;;;;;;;;;4985473;28;20638;-86
2023/03/31 06:45:48;;;;;;;9.80;5.07;;;;;;;;;;4963016;28;20635;-87
2023/03/31 06:48:53;;;;;;;8.77;4.70;;;;;;;;;;4996310;28;20186;-86
2023/03/31 06:51:57;;;;;;;11.97;5.30;;;;;;;;;;4985187;28;20198;-86
2023/03/31 06:55:02;;;;;;;8.47;4.40;;;;;;;;;;4962840;28;20190;-87
2023/03/31 06:58:06;;;;;;;8.97;4.67;;;;;;;;;;4985429;28;20186;-87
2023/03/31 07:01:10;;;;;;;9.63;5.00;;;;;;;;;;4962891;28;20234;-87
2023/03/31 07:04:14;;;;;;;11.03;4.97;;;;;;;;;;4984346;28;20210;-87
2023/03/31 07:07:19;;;;;;;6.83;4.53;;;;;;;;;;5007272;28;20190;-87
2023/03/31 07:10:26;;;;;;;7.03;4.70;;;;;;;;;;4973832;28;20222;-87
2023/03/31 07:13:30;;;;;;;9.30;4.80;;;;;;;;;;4996213;28;20186;-87
2023/03/31 07:16:35;;;;;;;9.50;5.27;;;;;;;;;;4985075;28;20190;-87
2023/03/31 07:19:40;;;;;;;9.50;4.33;;;;;;;;;;4996006;28;20186;-87
2023/03/31 07:22:46;;;;;;;10.23;4.80;;;;;;;;;;4973685;28;20194;-87
2023/03/31 07:25:51;;;;;;;10.80;5.40;;;;;;;;;;4962585;28;20186;-87
2023/03/31 07:28:56;;;;;;;8.77;4.90;;;;;;;;;;4984414;28;20194;-87
2023/03/31 07:32:00;;;;;;;9.03;4.77;;;;;;;;;;4963119;28;20186;-87
2023/03/31 07:35:06;;;;;;;9.30;5.10;;;;;;;;;;4973873;28;20202;-87
2023/03/31 07:38:11;;;;;;;9.67;4.47;;;;;;;;;;4973208;28;20190;-88
2023/03/31 07:41:18;;;;;;;10.47;5.43;;;;;;;;;;4983929;28;20221;-87
2023/03/31 07:44:22;;;;;;;11.77;4.43;;;;;;;;;;4972981;28;20206;-87
2023/03/31 07:47:27;;;;;;;9.13;5.13;;;;;;;;;;4983620;28;20666;-87
2023/03/31 07:50:31;;;;;;;8.90;4.60;;;;;;;;;;4972815;28;20214;-88
2023/03/31 07:53:37;;;;;;;11.50;5.60;;;;;;;;;;4983673;28;20206;-87
2023/03/31 07:56:42;;;;;;;10.33;4.87;;;;;;;;;;4973082;28;20532;-87
2023/03/31 07:59:46;;;;;;;10.03;4.70;;;;;;;;;;4961551;28;20222;-86
2023/03/31 08:02:50;;;;;;;11.30;5.67;;;;;;;;;;4983259;28;20575;-86
2023/03/31 08:05:54;;;;;;;11.30;5.97;;;;;;;;;;4983855;28;20691;-87
2023/03/31 08:08:59;;;;;;;10.27;5.97;;;;;;;;;;4994831;28;20186;-86
2023/03/31 08:12:03;;;;;;;9.20;6.03;;;;;;;;;;4983904;28;20532;-86
2023/03/31 08:15:08;;;;;;;10.97;6.03;;;;;;;;;;4961262;28;20671;-86
2023/03/31 08:18:12;;;;;;;10.50;5.73;;;;;;;;;;4972628;28;20519;-86
2023/03/31 08:21:17;;;;;;;12.17;5.83;;;;;;;;;;4983264;28;20230;-86
2023/03/31 08:24:21;;;;;;;11.57;6.00;;;;;;;;;;4972268;28;20190;-86
2023/03/31 08:27:25;;;;;;;10.53;6.00;;;;;;;;;;4972355;28;20186;-86
2023/03/31 08:30:29;;;;;;;10.00;6.10;;;;;;;;;;4960895;28;20219;-87
2023/03/31 08:33:33;;;;;;;9.77;5.77;;;;;;;;;;4972731;28;20193;-86
2023/03/31 08:36:37;;;;;;;11.37;5.33;;;;;;;;;;4995080;28;20194;-86
2023/03/31 08:39:42;;;;;;;11.80;6.10;;;;;;;;;;4960570;28;20209;-87
2023/03/31 08:42:52;;;;;;;9.40;6.30;;;;;;;;;;4994220;28;20203;-86
2023/03/31 08:45:56;;;;;;;11.57;5.77;;;;;;;;;;4994119;28;20186;-86
2023/03/31 08:49:03;;;;;;;9.10;6.30;;;;;;;;;;4960903;28;20199;-87
2023/03/31 08:52:19;;;;;;;21.83;11.37;;;;;;;;;;4983132;28;20182;-87
2023/03/31 08:55:28;;;;;;;17.30;10.53;;;;;;;;;;4960359;28;20205;-87
2023/03/31 08:58:39;;;;;;;10.07;6.93;;;;;;;;;;4961584;28;20194;-87
2023/03/31 09:01:54;;;;;;;12.47;7.73;;;;;;;;;;4996651;28;20226;-87
2023/03/31 09:05:17;;;;;;;14.23;7.60;;;;;;;;;;4995039;28;20197;-87
2023/03/31 09:08:34;;;;;;;10.43;5.93;;;;;;;;;;4961495;28;20563;-87
2023/03/31 09:11:54;;;;;;;7.27;5.30;;;;;;;;;;4973718;28;20233;-86
2023/03/31 09:15:01;;;;;;;8.13;5.47;;;;;;;;;;4984805;28;20559;-87
2023/03/31 09:18:25;;;;;;;6.50;4.57;;;;;;;;;;4962687;28;20186;-87
2023/03/31 09:21:39;;;;;;;7.40;4.40;;;;;;;;;;4984786;28;20702;-86
2023/03/31 09:25:12;;;;;;;5.83;4.03;;;;;;;;;;4984088;28;20198;-86
2023/03/31 09:28:24;;;;;;;5.63;3.70;;;;;;;;;;4984238;28;20182;-87
2023/03/31 09:31:30;;;;;;;5.70;3.50;;;;;;;;;;4973101;28;20549;-86
2023/03/31 09:34:35;;;;;;;6.53;3.20;;;;;;;;;;4962444;28;20178;-87
2023/03/31 09:37:39;;;;;;;4.80;2.73;;;;;;;;;;4974198;28;20194;-86
2023/03/31 09:40:43;;;;;;;5.03;3.87;;;;;;;;;;4983026;28;20229;-86
2023/03/31 09:43:48;;;;;;;3.30;2.63;;;;;;;;;;4962289;28;20186;-86
2023/03/31 09:46:54;;;;;;;27.90;16.00;;;;;;;;;;4983666;28;20190;-86
2023/03/31 09:50:09;;;;;;;5.30;3.47;;;;;;;;;;4972382;28;20228;-86
2023/03/31 09:53:25;;;;;;;2.97;2.67;;;;;;;;;;4972503;28;20198;-86
2023/03/31 09:56:41;;;;;;;4.93;3.00;;;;;;;;;;4983923;28;20198;-86
2023/03/31 09:59:50;;;;;;;4.37;2.20;;;;;;;;;;4961705;28;20226;-86
2023/03/31 10:03:06;;;;;;;4.13;1.80;;;;;;;;;;5017728;23;20237;-81
2023/03/31 10:06:14;;;;;;;2.87;1.70;;;;;;;;;;5005668;28;20253;-82
2023/03/31 10:09:23;;;;;;;1.80;1.50;;;;;;;;;;4994804;28;20206;-83
2023/03/31 10:12:30;;;;;;;3.90;1.80;;;;;;;;;;4994545;28;20221;-84
2023/03/31 10:15:38;;;;;;;2.93;1.40;;;;;;;;;;5005690;28;20201;-84
2023/03/31 10:18:42;;;;;;;4.63;1.47;;;;;;;;;;5001433;28;20185;-83
2023/03/31 10:21:59;;;;;;;3.50;1.50;;;;;;;;;;5029766;28;20685;-83
2023/03/31 10:25:14;;;;;;;3.67;1.30;;;;;;;;;;5017621;28;20670;-83
2023/03/31 10:28:20;;;;;;;2.27;1.20;;;;;;;;;;5006026;28;20190;-83
2023/03/31 10:31:32;;;;;;;5.07;1.53;;;;;;;;;;5018909;28;20181;-83
2023/03/31 10:34:41;;;;;;;1.80;0.90;;;;;;;;;;4995311;28;20185;-83
2023/03/31 10:37:47;;;;;;;1.33;0.77;;;;;;;;;;5017669;28;20186;-84
2023/03/31 10:40:55;;;;;;;2.07;0.77;;;;;;;;;;5019875;28;20205;-84
2023/03/31 10:44:03;;;;;;;3.10;0.90;;;;;;;;;;5020014;28;20666;-84
2023/03/31 10:47:23;;;;;;;2.83;1.37;;;;;;;;;;5020232;28;20622;-84
2023/03/31 10:50:34;;;;;;;3.80;1.00;;;;;;;;;;5008611;28;20193;-83
2023/03/31 10:54:08;;;;;;;4.60;1.13;;;;;;;;;;5019532;28;20247;-83
2023/03/31 10:57:15;;;;;;;1.83;0.90;;;;;;;;;;5019280;28;20185;-83
2023/03/31 11:00:42;;;;;;;2.03;1.03;;;;;;;;;;4997615;28;20197;-83
2023/03/31 11:03:54;;;;;;;3.37;1.50;;;;;;;;;;5031914;28;20202;-83
2023/03/31 11:07:08;;;;;;;2.33;0.90;;;;;;;;;;5018987;28;20189;-84
2023/03/31 11:10:40;;;;;;;1.43;0.90;;;;;;;;;;4997280;28;20185;-83
2023/03/31 11:13:56;;;;;;;2.03;1.10;;;;;;;;;;5007538;28;20185;-83
2023/03/31 11:17:33;;;;;;;1.97;0.97;;;;;;;;;;5019408;28;20186;-83
2023/03/31 11:21:07;;;;;;;2.43;1.23;;;;;;;;;;4996066;28;20186;-83
2023/03/31 11:24:37;;;;;;;1.90;0.90;;;;;;;;;;5006915;28;20531;-83
2023/03/31 11:28:00;;;;;;;4.77;1.50;;;;;;;;;;4996512;28;20189;-83
2023/03/31 11:31:37;;;;;;;3.90;1.60;;;;;;;;;;5020181;28;20186;-83
2023/03/31 11:35:17;;;;;;;2.13;0.97;;;;;;;;;;5019070;28;20186;-83
2023/03/31 11:38:37;;;;;;;1.83;1.13;;;;;;;;;;5007126;28;20634;-83
2023/03/31 11:41:48;;;;;;;4.43;2.17;;;;;;;;;;4995884;28;20229;-83
2023/03/31 11:45:03;;;;;;;3.10;1.80;;;;;;;;;;5007044;28;20189;-84
2023/03/31 11:48:28;;;;;;;2.67;1.30;;;;;;;;;;5017828;28;20189;-84
2023/03/31 11:51:50;;;;;;;4.50;1.57;;;;;;;;;;5028969;28;20182;-83
2023/03/31 11:55:14;;;;;;;3.83;1.73;;;;;;;;;;5024160;28;20181;-83
2023/03/31 11:58:26;;;;;;;2.27;0.93;;;;;;;;;;5006232;28;20197;-83
2023/03/31 12:01:58;;;;;;;5.17;2.10;;;;;;;;;;5018713;28;20218;-84
2023/03/31 12:05:04;;;;;;;5.73;2.63;;;;;;;;;;5014080;28;20558;-84
2023/03/31 12:08:31;;;;;;;7.70;3.30;;;;;;;;;;5016106;28;20637;-84
2023/03/31 12:11:51;;;;;;;2.80;1.77;;;;;;;;;;4993732;28;20201;-84
2023/03/31 12:15:39;;;;;;;1.73;1.00;;;;;;;;;;5026449;28;20633;-83
2023/03/31 12:19:02;;;;;;;2.47;1.00;;;;;;;;;;5026183;28;20185;-83
2023/03/31 12:22:16;;;;;;;4.23;0.97;;;;;;;;;;5003142;28;20558;-83
2023/03/31 12:25:27;;;;;;;2.20;1.50;;;;;;;;;;5037863;28;20189;-83
2023/03/31 12:28:33;;;;;;;2.03;1.00;;;;;;;;;;5014740;28;20181;-83
2023/03/31 12:31:44;;;;;;;4.70;3.90;;;;;;;;;;5036724;28;20217;-83
2023/03/31 12:35:16;;;;;;;1.23;0.73;;;;;;;;;;5002812;28;20177;-83
2023/03/31 12:38:57;;;;;;;2.53;1.00;;;;;;;;;;5001565;28;20515;-83
2023/03/31 12:42:14;;;;;;;1.70;0.80;;;;;;;;;;5022906;28;20233;-83
2023/03/31 12:46:10;;;;;;;2.30;0.80;;;;;;;;;;5001369;28;20193;-83
2023/03/31 12:49:29;;;;;;;2.20;0.87;;;;;;;;;;4999934;28;20199;-84
2023/03/31 12:53:04;;;;;;;1.70;1.07;;;;;;;;;;5001849;28;20225;-83
2023/03/31 12:56:18;;;;;;;3.83;0.73;;;;;;;;;;4954799;28;20196;-83
2023/03/31 12:59:35;;;;;;;2.00;0.97;;;;;;;;;;4992427;28;20192;-83
2023/03/31 13:02:41;;;;;;;2.53;1.10;;;;;;;;;;5013375;28;20228;-83
2023/03/31 13:05:46;;;;;;;3.47;1.10;;;;;;;;;;5001447;28;20193;-83
2023/03/31 13:09:04;;;;;;;2.80;1.20;;;;;;;;;;5001237;28;20181;-83
2023/03/31 13:12:14;;;;;;;2.47;0.90;;;;;;;;;;5001548;28;20217;-83
2023/03/31 13:15:18;;;;;;;3.43;1.10;;;;;;;;;;5023418;28;20200;-83
2023/03/31 13:18:32;;;;;;;2.90;1.10;;;;;;;;;;5001823;28;20185;-84
2023/03/31 13:21:57;;;;;;;5.03;1.00;;;;;;;;;;5023965;28;20217;-83
2023/03/31 13:25:41;;;;;;;4.90;1.07;;;;;;;;;;5003123;28;20201;-83
2023/03/31 13:29:15;;;;;;;1.83;0.80;;;;;;;;;;5013753;28;20182;-83
2023/03/31 13:32:25;;;;;;;1.90;0.50;;;;;;;;;;5014313;28;20224;-83
2023/03/31 13:35:32;;;;;;;4.67;0.80;;;;;;;;;;5014386;28;20177;-83
2023/03/31 13:38:57;;;;;;;2.83;0.50;;;;;;;;;;5003008;28;20184;-83
2023/03/31 13:42:16;;;;;;;1.53;0.57;;;;;;;;;;5001903;28;20323;-83
2023/03/31 13:45:54;;;;;;;0.53;0.40;;;;;;;;;;5011026;28;20549;-83
2023/03/31 13:49:17;;;;;;;2.00;0.70;;;;;;;;;;5033612;28;20181;-83
2023/03/31 13:52:43;;;;;;;3.03;0.70;;;;;;;;;;5011213;28;20217;-83
2023/03/31 13:56:12;;;;;;;1.37;0.50;;;;;;;;;;5012196;28;20189;-83
2023/03/31 13:59:36;;;;;;;0.87;0.40;;;;;;;;;;5003077;28;20637;-84
2023/03/31 14:02:51;;;;;;;1.10;0.40;;;;;;;;;;5001870;28;20232;-83
2023/03/31 14:06:01;;;;;;;0.83;0.30;;;;;;;;;;5001085;28;20189;-83
2023/03/31 14:09:55;;;;;;;1.90;0.53;;;;;;;;;;5000933;28;20201;-83
2023/03/31 14:13:41;;;;;;;0.63;0.43;;;;;;;;;;5025904;28;20716;-83
2023/03/31 14:16:49;;;;;;;1.70;0.40;;;;;;;;;;5002899;28;20193;-83
2023/03/31 14:20:12;;;;;;;3.23;0.47;;;;;;;;;;5014610;28;20185;-83
2023/03/31 14:23:48;;;;;;;0.83;0.40;;;;;;;;;;5017288;28;20566;-83
2023/03/31 14:26:56;;;;;;;0.93;0.47;;;;;;;;;;5014248;28;20649;-83
2023/03/31 14:30:33;;;;;;;5.03;3.10;;;;;;;;;;5014427;28;20181;-83
2023/03/31 14:33:50;;;;;;;1.60;0.93;;;;;;;;;;5026074;28;20216;-83
2023/03/31 14:37:00;;;;;;;1.73;0.50;;;;;;;;;;5014397;28;20181;-84
2023/03/31 14:40:08;;;;;;;3.60;0.70;;;;;;;;;;5025787;28;20538;-84
2023/03/31 14:43:27;;;;;;;4.00;0.70;;;;;;;;;;5024770;28;20217;-84
2023/03/31 14:46:35;;;;;;;1.83;0.60;;;;;;;;;;5035726;28;20185;-84
2023/03/31 14:49:39;;;;;;;3.57;0.70;;;;;;;;;;5024063;28;20209;-83
2023/03/31 14:52:54;;;;;;;3.30;0.60;;;;;;;;;;5004188;28;20216;-84
2023/03/31 14:56:05;;;;;;;1.97;0.67;;;;;;;;;;5012803;28;20522;-84
2023/03/31 14:59:13;;;;;;;3.80;0.90;;;;;;;;;;5012872;28;20634;-83
2023/03/31 15:02:29;;;;;;;2.70;0.73;;;;;;;;;;5023611;28;20705;-83
2023/03/31 15:05:35;;;;;;;2.30;0.80;;;;;;;;;;5012981;28;20189;-83
2023/03/31 15:08:39;;;;;;;2.40;0.57;;;;;;;;;;5004795;28;20196;-84
2023/03/31 15:11:45;;;;;;;23.03;14.00;;;;;;;;;;5012179;28;20217;-83
2023/03/31 15:14:55;;;;;;;12.00;6.80;;;;;;;;;;5001268;28;20192;-83
2023/03/31 15:18:00;;;;;;;2.37;0.93;;;;;;;;;;5024207;28;20190;-84
2023/03/31 15:21:04;;;;;;;1.97;0.87;;;;;;;;;;5001421;28;20181;-83
2023/03/31 15:24:15;;;;;;;4.80;1.00;;;;;;;;;;5010853;28;20173;-83
2023/03/31 15:27:40;;;;;;;2.47;0.80;;;;;;;;;;5011854;28;20642;-84
2023/03/31 15:30:48;;;;;;;2.87;0.90;;;;;;;;;;5000564;28;20181;-83
2023/03/31 15:33:52;;;;;;;3.10;1.20;;;;;;;;;;5000780;28;20184;-83
2023/03/31 15:36:57;;;;;;;2.47;0.93;;;;;;;;;;5023205;28;20185;-82
2023/03/31 15:40:06;;;;;;;3.87;0.83;;;;;;;;;;5000765;28;20240;-83
2023/03/31 15:43:10;;;;;;;4.20;1.53;;;;;;;;;;5000656;28;20685;-84
2023/03/31 15:46:44;;;;;;;2.67;1.07;;;;;;;;;;5023435;28;20184;-84
2023/03/31 15:49:51;;;;;;;2.57;0.90;;;;;;;;;;5023987;28;20185;-84
2023/03/31 15:53:00;;;;;;;5.53;1.03;;;;;;;;;;5001338;28;20216;-84
2023/03/31 15:56:04;;;;;;;2.00;1.17;;;;;;;;;;5023015;28;20193;-84
2023/03/31 15:59:29;;;;;;;2.53;0.80;;;;;;;;;;5001398;28;20200;-83
2023/03/31 16:02:45;;;;;;;3.53;0.90;;;;;;;;;;4999972;28;20237;-83
2023/03/31 16:05:57;;;;;;;1.07;0.57;;;;;;;;;;5011153;28;20185;-83
2023/03/31 16:09:17;;;;;;;2.50;0.90;;;;;;;;;;5011184;28;20653;-83
2023/03/31 16:12:36;;;;;;;5.63;1.80;;;;;;;;;;4999842;28;20320;-84
2023/03/31 16:15:47;;;;;;;7.83;1.40;;;;;;;;;;5010812;28;20189;-83
2023/03/31 16:19:01;;;;;;;2.57;0.70;;;;;;;;;;5011051;28;20189;-87
2023/03/31 16:22:06;;;;;;;2.47;0.63;;;;;;;;;;5021057;28;20229;-83
2023/03/31 16:25:14;;;;;;;3.47;1.37;;;;;;;;;;5021578;28;20201;-83
2023/03/31 16:28:24;;;;;;;2.47;1.00;;;;;;;;;;5010101;28;20177;-83
2023/03/31 16:31:34;;;;;;;4.50;1.33;;;;;;;;;;5010044;28;20215;-83
2023/03/31 16:34:52;;;;;;;3.53;1.37;;;;;;;;;;5009543;28;20196;-83
2023/03/31 16:38:21;;;;;;;2.13;0.77;;;;;;;;;;5009914;28;20186;-84
2023/03/31 16:41:29;;;;;;;2.73;1.30;;;;;;;;;;4998923;28;20185;-83
2023/03/31 16:44:33;;;;;;;21.00;12.93;;;;;;;;;;5010245;28;20537;-83
2023/03/31 16:47:37;;;;;;;9.13;5.73;;;;;;;;;;5010376;28;20196;-83
2023/03/31 16:50:42;;;;;;;7.43;4.40;;;;;;;;;;4999178;28;20642;-83
2023/03/31 16:53:47;;;;;;;4.43;1.47;;;;;;;;;;5010567;28;20196;-81
2023/03/31 16:56:51;;;;;;;3.47;1.13;;;;;;;;;;5010421;28;20185;-84
2023/03/31 16:59:55;;;;;;;3.47;1.50;;;;;;;;;;4999203;28;20176;-84
2023/03/31 17:03:00;;;;;;;2.83;1.60;;;;;;;;;;5009808;28;20228;-84
2023/03/31 17:06:07;;;;;;;1.80;1.07;;;;;;;;;;4999155;28;20558;-84
2023/03/31 17:09:11;;;;;;;2.33;0.90;;;;;;;;;;5010355;28;20638;-84
2023/03/31 17:12:16;;;;;;;3.97;1.13;;;;;;;;;;5033675;28;20287;-84
2023/03/31 17:15:20;;;;;;;5.90;1.10;;;;;;;;;;4999128;28;20185;-84
2023/03/31 17:18:25;;;;;;;2.13;1.10;;;;;;;;;;5033025;28;20208;-84
2023/03/31 17:21:29;;;;;;;6.63;1.50;;;;;;;;;;5022130;28;20204;-83
2023/03/31 17:24:33;;;;;;;4.27;0.80;;;;;;;;;;5021069;28;20224;-83
2023/03/31 17:27:37;;;;;;;5.83;1.10;;;;;;;;;;4999033;28;20189;-84
2023/03/31 17:30:43;;;;;;;1.90;0.87;;;;;;;;;;5009998;28;20201;-84
2023/03/31 17:33:47;;;;;;;2.43;0.80;;;;;;;;;;5000087;28;20633;-84
2023/03/31 17:36:54;;;;;;;2.13;0.90;;;;;;;;;;5027383;28;20185;-83
2023/03/31 17:39:58;;;;;;;3.77;1.00;;;;;;;;;;5001965;28;20184;-84
2023/03/31 17:43:03;;;;;;;1.60;0.63;;;;;;;;;;5012665;28;20220;-83
2023/03/31 17:46:09;;;;;;;2.03;0.70;;;;;;;;;;5001592;28;20204;-84
2023/03/31 17:49:13;;;;;;;5.17;0.90;;;;;;;;;;5016241;28;20184;-83
2023/03/31 17:52:18;;;;;;;1.17;0.67;;;;;;;;;;5029162;28;20228;-84
2023/03/31 17:55:23;;;;;;;1.87;0.63;;;;;;;;;;5014091;28;20180;-85
2023/03/31 17:58:28;;;;;;;0.77;0.60;;;;;;;;;;5013924;28;20181;-85
2023/03/31 18:01:32;;;;;;;1.63;0.60;;;;;;;;;;5002312;28;20189;-84
2023/03/31 18:04:36;;;;;;;1.77;0.60;;;;;;;;;;5025074;28;20205;-87
2023/03/31 18:07:41;;;;;;;2.13;0.90;;;;;;;;;;5002394;28;20653;-87
2023/03/31 18:10:45;;;;;;;0.80;0.50;;;;;;;;;;5002139;28;20704;-87
2023/03/31 18:13:49;;;;;;;4.23;1.87;;;;;;;;;;5013624;28;20181;-86
2023/03/31 18:16:53;;;;;;;2.10;0.60;;;;;;;;;;5002526;28;20181;-87
2023/03/31 18:19:58;;;;;;;1.13;0.67;;;;;;;;;;5036048;28;20185;-87
2023/03/31 18:23:03;;;;;;;1.17;0.67;;;;;;;;;;5001680;28;20228;-87
2023/03/31 18:26:10;;;;;;;3.33;0.60;;;;;;;;;;5024691;28;20189;-86
2023/03/31 18:29:14;;;;;;;1.30;0.63;;;;;;;;;;5001821;28;20180;-86
2023/03/31 18:32:18;;;;;;;3.33;0.60;;;;;;;;;;5013194;28;20216;-86
2023/03/31 18:35:22;;;;;;;5.93;2.10;;;;;;;;;;5035608;28;20177;-86
2023/03/31 18:38:27;;;;;;;13.07;5.27;;;;;;;;;;5024380;28;20189;-86
2023/03/31 18:41:31;;;;;;;8.37;3.97;;;;;;;;;;5001905;28;20196;-87
2023/03/31 18:44:38;;;;;;;3.30;1.60;;;;;;;;;;5001576;28;20200;-86
2023/03/31 18:47:42;;;;;;;2.17;1.00;;;;;;;;;;5024406;28;20185;-86
2023/03/31 18:50:47;;;;;;;1.83;0.90;;;;;;;;;;5013007;28;20176;-86
2023/03/31 18:53:51;;;;;;;2.30;0.90;;;;;;;;;;5023790;28;20177;-86
2023/03/31 18:56:55;;;;;;;1.40;0.80;;;;;;;;;;5001799;28;20193;-86
2023/03/31 19:00:00;;;;;;;2.70;0.97;;;;;;;;;;5001206;28;20184;-86